sensor_id;sensor_type;location;lat;lon;timestamp;temperature;humidity
53310;DHT22;39197;53.200;5.792;2023-03-31T00:02:08;9.80;99.90
53310;DHT22;39197;53.200;5.792;2023-03-31T00:04:47;9.80;99.90
53310;DHT22;39197;53.200;5.792;2023-03-31T00:07:17;9.80;99.90
53310;DHT22;39197;53.200;5.792;2023-03-31T00:09:47;9.80;99.90
53310;DHT22;39197;53.200;5.792;2023-03-31T00:12:14;9.80;99.90
53310;DHT22;39197;53.200;5.792;2023-03-31T00:14:40;9.80;99.90
53310;DHT22;39197;53.200;5.792;2023-03-31T00:17:07;9.80;99.90
53310;DHT22;39197;53.200;5.792;2023-03-31T00:19:33;9.80;99.90
53310;DHT22;39197;53.200;5.792;2023-03-31T00:21:58;9.90;99.90
53310;DHT22;39197;53.200;5.792;2023-03-31T00:24:30;9.90;99.90
53310;DHT22;39197;53.200;5.792;2023-03-31T00:26:58;9.90;99.90
53310;DHT22;39197;53.200;5.792;2023-03-31T00:29:24;9.90;99.90
53310;DHT22;39197;53.200;5.792;2023-03-31T00:31:51;9.90;99.90
53310;DHT22;39197;53.200;5.792;2023-03-31T00:34:16;9.90;99.90
53310;DHT22;39197;53.200;5.792;2023-03-31T00:36:42;9.80;99.90
53310;DHT22;39197;53.200;5.792;2023-03-31T00:39:13;9.90;99.90
53310;DHT22;39197;53.200;5.792;2023-03-31T00:41:39;9.90;99.90
53310;DHT22;39197;53.200;5.792;2023-03-31T00:44:12;9.80;99.90
53310;DHT22;39197;53.200;5.792;2023-03-31T00:47:12;9.80;99.90
53310;DHT22;39197;53.200;5.792;2023-03-31T00:49:44;9.70;99.90
53310;DHT22;39197;53.200;5.792;2023-03-31T00:52:20;9.60;99.90
53310;DHT22;39197;53.200;5.792;2023-03-31T00:54:50;9.50;99.90
53310;DHT22;39197;53.200;5.792;2023-03-31T00:57:19;9.50;99.90
53310;DHT22;39197;53.200;5.792;2023-03-31T00:59:49;9.40;99.90
53310;DHT22;39197;53.200;5.792;2023-03-31T01:02:17;9.50;99.90
53310;DHT22;39197;53.200;5.792;2023-03-31T01:04:51;9.30;99.90
53310;DHT22;39197;53.200;5.792;2023-03-31T01:07:36;9.20;99.90
53310;DHT22;39197;53.200;5.792;2023-03-31T01:10:03;9.20;99.90
53310;DHT22;39197;53.200;5.792;2023-03-31T01:12:30;9.10;99.90
53310;DHT22;39197;53.200;5.792;2023-03-31T01:14:57;9.10;99.90
53310;DHT22;39197;53.200;5.792;2023-03-31T01:17:24;9.00;99.90
53310;DHT22;39197;53.200;5.792;2023-03-31T01:28:05;8.90;99.90
53310;DHT22;39197;53.200;5.792;2023-03-31T01:31:05;8.90;99.90
53310;DHT22;39197;53.200;5.792;2023-03-31T01:34:14;8.80;99.90
53310;DHT22;39197;53.200;5.792;2023-03-31T01:37:13;8.80;99.90
53310;DHT22;39197;53.200;5.792;2023-03-31T01:42:58;8.80;99.90
53310;DHT22;39197;53.200;5.792;2023-03-31T01:45:46;8.80;99.90
53310;DHT22;39197;53.200;5.792;2023-03-31T01:48:18;8.80;99.90
53310;DHT22;39197;53.200;5.792;2023-03-31T01:50:57;8.80;99.90
53310;DHT22;39197;53.200;5.792;2023-03-31T01:58:40;8.90;99.90
53310;DHT22;39197;53.200;5.792;2023-03-31T02:01:24;8.90;99.90
53310;DHT22;39197;53.200;5.792;2023-03-31T02:04:10;8.90;99.90
53310;DHT22;39197;53.200;5.792;2023-03-31T02:06:40;9.00;99.90
53310;DHT22;39197;53.200;5.792;2023-03-31T02:09:11;9.00;99.90
53310;DHT22;39197;53.200;5.792;2023-03-31T02:11:39;9.10;99.90
53310;DHT22;39197;53.200;5.792;2023-03-31T02:14:09;9.10;99.90
53310;DHT22;39197;53.200;5.792;2023-03-31T02:16:39;9.20;99.90
53310;DHT22;39197;53.200;5.792;2023-03-31T02:19:07;9.20;99.90
53310;DHT22;39197;53.200;5.792;2023-03-31T02:21:37;9.30;99.90
53310;DHT22;39197;53.200;5.792;2023-03-31T02:24:08;9.30;99.90
53310;DHT22;39197;53.200;5.792;2023-03-31T02:26:42;9.30;99.90
53310;DHT22;39197;53.200;5.792;2023-03-31T02:29:10;9.30;99.90
53310;DHT22;39197;53.200;5.792;2023-03-31T02:34:32;9.30;99.90
53310;DHT22;39197;53.200;5.792;2023-03-31T02:36:58;9.30;99.90
53310;DHT22;39197;53.200;5.792;2023-03-31T02:39:33;9.30;99.90
53310;DHT22;39197;53.200;5.792;2023-03-31T02:41:59;9.30;99.90
53310;DHT22;39197;53.200;5.792;2023-03-31T02:44:32;9.30;99.90
53310;DHT22;39197;53.200;5.792;2023-03-31T02:46:58;9.30;99.90
53310;DHT22;39197;53.200;5.792;2023-03-31T02:49:23;9.30;99.90
53310;DHT22;39197;53.200;5.792;2023-03-31T02:54:56;9.30;99.90
53310;DHT22;39197;53.200;5.792;2023-03-31T03:00:15;9.40;99.90
53310;DHT22;39197;53.200;5.792;2023-03-31T03:08:14;9.40;99.90
53310;DHT22;39197;53.200;5.792;2023-03-31T03:16:18;9.50;99.90
53310;DHT22;39197;53.200;5.792;2023-03-31T03:21:21;9.50;99.90
53310;DHT22;39197;53.200;5.792;2023-03-31T03:23:47;9.50;99.90
53310;DHT22;39197;53.200;5.792;2023-03-31T03:26:12;9.60;99.90
53310;DHT22;39197;53.200;5.792;2023-03-31T03:28:38;9.50;99.90
53310;DHT22;39197;53.200;5.792;2023-03-31T03:31:03;9.50;99.90
53310;DHT22;39197;53.200;5.792;2023-03-31T03:33:29;9.50;99.90
53310;DHT22;39197;53.200;5.792;2023-03-31T03:35:54;9.50;99.90
53310;DHT22;39197;53.200;5.792;2023-03-31T03:38:20;9.40;99.90
53310;DHT22;39197;53.200;5.792;2023-03-31T03:40:46;9.50;99.90
53310;DHT22;39197;53.200;5.792;2023-03-31T03:43:11;9.40;99.90
53310;DHT22;39197;53.200;5.792;2023-03-31T03:45:37;9.30;99.90
53310;DHT22;39197;53.200;5.792;2023-03-31T03:48:02;9.30;99.90
53310;DHT22;39197;53.200;5.792;2023-03-31T03:50:28;9.20;99.90
53310;DHT22;39197;53.200;5.792;2023-03-31T03:52:53;9.20;99.90
53310;DHT22;39197;53.200;5.792;2023-03-31T03:55:19;9.20;99.90
53310;DHT22;39197;53.200;5.792;2023-03-31T03:57:45;9.20;99.90
53310;DHT22;39197;53.200;5.792;2023-03-31T04:00:10;9.20;99.90
53310;DHT22;39197;53.200;5.792;2023-03-31T04:02:37;9.20;99.90
53310;DHT22;39197;53.200;5.792;2023-03-31T04:05:03;9.20;99.90
53310;DHT22;39197;53.200;5.792;2023-03-31T04:07:28;9.20;99.90
53310;DHT22;39197;53.200;5.792;2023-03-31T04:09:54;9.20;99.90
53310;DHT22;39197;53.200;5.792;2023-03-31T04:12:20;9.20;99.90
53310;DHT22;39197;53.200;5.792;2023-03-31T04:14:45;9.20;99.90
53310;DHT22;39197;53.200;5.792;2023-03-31T04:17:11;9.30;99.90
53310;DHT22;39197;53.200;5.792;2023-03-31T04:19:40;9.30;99.90
53310;DHT22;39197;53.200;5.792;2023-03-31T04:22:07;9.30;99.90
53310;DHT22;39197;53.200;5.792;2023-03-31T04:24:36;9.30;99.90
53310;DHT22;39197;53.200;5.792;2023-03-31T04:27:03;9.30;99.90
53310;DHT22;39197;53.200;5.792;2023-03-31T04:29:32;9.40;99.90
53310;DHT22;39197;53.200;5.792;2023-03-31T04:31:59;9.40;99.90
53310;DHT22;39197;53.200;5.792;2023-03-31T04:34:25;9.40;99.90
53310;DHT22;39197;53.200;5.792;2023-03-31T04:36:59;9.40;99.90
53310;DHT22;39197;53.200;5.792;2023-03-31T04:39:27;9.40;99.90
53310;DHT22;39197;53.200;5.792;2023-03-31T04:41:57;9.40;99.90
53310;DHT22;39197;53.200;5.792;2023-03-31T04:44:22;9.40;99.90
53310;DHT22;39197;53.200;5.792;2023-03-31T04:46:48;9.50;99.90
53310;DHT22;39197;53.200;5.792;2023-03-31T04:49:14;9.50;99.90
53310;DHT22;39197;53.200;5.792;2023-03-31T04:51:40;9.50;99.90
53310;DHT22;39197;53.200;5.792;2023-03-31T04:54:05;9.50;99.90
53310;DHT22;39197;53.200;5.792;2023-03-31T04:56:31;9.50;99.90
53310;DHT22;39197;53.200;5.792;2023-03-31T04:58:57;9.50;99.90
53310;DHT22;39197;53.200;5.792;2023-03-31T05:01:22;9.50;99.90
53310;DHT22;39197;53.200;5.792;2023-03-31T05:03:48;9.50;99.90
53310;DHT22;39197;53.200;5.792;2023-03-31T05:06:15;9.50;99.90
53310;DHT22;39197;53.200;5.792;2023-03-31T05:08:41;9.50;99.90
53310;DHT22;39197;53.200;5.792;2023-03-31T05:11:07;9.50;99.90
53310;DHT22;39197;53.200;5.792;2023-03-31T05:13:32;9.50;99.90
53310;DHT22;39197;53.200;5.792;2023-03-31T05:15:58;9.50;99.90
53310;DHT22;39197;53.200;5.792;2023-03-31T05:18:29;9.40;99.90
53310;DHT22;39197;53.200;5.792;2023-03-31T05:20:55;9.50;99.90
53310;DHT22;39197;53.200;5.792;2023-03-31T05:23:21;9.50;99.90
53310;DHT22;39197;53.200;5.792;2023-03-31T05:25:46;9.50;99.90
53310;DHT22;39197;53.200;5.792;2023-03-31T05:28:12;9.40;99.90
53310;DHT22;39197;53.200;5.792;2023-03-31T05:30:37;9.50;99.90
53310;DHT22;39197;53.200;5.792;2023-03-31T05:33:03;9.50;99.90
53310;DHT22;39197;53.200;5.792;2023-03-31T05:35:29;9.50;99.90
53310;DHT22;39197;53.200;5.792;2023-03-31T05:37:54;9.50;99.90
53310;DHT22;39197;53.200;5.792;2023-03-31T05:40:20;9.40;99.90
53310;DHT22;39197;53.200;5.792;2023-03-31T05:42:46;9.50;99.90
53310;DHT22;39197;53.200;5.792;2023-03-31T05:45:11;9.50;99.90
53310;DHT22;39197;53.200;5.792;2023-03-31T05:47:37;9.40;99.90
53310;DHT22;39197;53.200;5.792;2023-03-31T05:50:03;9.50;99.90
53310;DHT22;39197;53.200;5.792;2023-03-31T05:52:32;9.50;99.90
53310;DHT22;39197;53.200;5.792;2023-03-31T05:54:57;9.50;99.90
53310;DHT22;39197;53.200;5.792;2023-03-31T05:57:23;9.50;99.90
53310;DHT22;39197;53.200;5.792;2023-03-31T05:59:49;9.50;99.90
53310;DHT22;39197;53.200;5.792;2023-03-31T06:02:14;9.50;99.90
53310;DHT22;39197;53.200;5.792;2023-03-31T06:04:40;9.50;99.90
53310;DHT22;39197;53.200;5.792;2023-03-31T06:07:06;9.50;99.90
53310;DHT22;39197;53.200;5.792;2023-03-31T06:09:32;9.50;99.90
53310;DHT22;39197;53.200;5.792;2023-03-31T06:11:58;9.50;99.90
53310;DHT22;39197;53.200;5.792;2023-03-31T06:14:24;9.50;99.90
53310;DHT22;39197;53.200;5.792;2023-03-31T06:16:49;9.50;99.90
53310;DHT22;39197;53.200;5.792;2023-03-31T06:19:15;9.60;99.90
53310;DHT22;39197;53.200;5.792;2023-03-31T06:21:40;9.50;99.90
53310;DHT22;39197;53.200;5.792;2023-03-31T06:24:08;9.60;99.90
53310;DHT22;39197;53.200;5.792;2023-03-31T06:26:34;9.50;99.90
53310;DHT22;39197;53.200;5.792;2023-03-31T06:29:00;9.50;99.90
53310;DHT22;39197;53.200;5.792;2023-03-31T06:31:26;9.60;99.90
53310;DHT22;39197;53.200;5.792;2023-03-31T06:33:52;9.60;99.90
53310;DHT22;39197;53.200;5.792;2023-03-31T06:36:19;9.50;99.90
53310;DHT22;39197;53.200;5.792;2023-03-31T06:38:47;9.60;99.90
53310;DHT22;39197;53.200;5.792;2023-03-31T06:41:14;9.60;99.90
53310;DHT22;39197;53.200;5.792;2023-03-31T06:43:40;9.60;99.90
53310;DHT22;39197;53.200;5.792;2023-03-31T06:46:06;9.60;99.90
53310;DHT22;39197;53.200;5.792;2023-03-31T06:48:32;9.60;99.90
53310;DHT22;39197;53.200;5.792;2023-03-31T06:51:00;9.60;99.90
53310;DHT22;39197;53.200;5.792;2023-03-31T06:53:26;9.70;99.90
53310;DHT22;39197;53.200;5.792;2023-03-31T06:55:52;9.70;99.90
53310;DHT22;39197;53.200;5.792;2023-03-31T06:58:17;9.70;99.90
53310;DHT22;39197;53.200;5.792;2023-03-31T07:00:43;9.70;99.90
53310;DHT22;39197;53.200;5.792;2023-03-31T07:03:11;9.70;99.90
53310;DHT22;39197;53.200;5.792;2023-03-31T07:05:37;9.60;99.90
53310;DHT22;39197;53.200;5.792;2023-03-31T07:08:03;9.60;99.90
53310;DHT22;39197;53.200;5.792;2023-03-31T07:10:30;9.60;99.90
53310;DHT22;39197;53.200;5.792;2023-03-31T07:12:57;9.60;99.90
53310;DHT22;39197;53.200;5.792;2023-03-31T07:15:24;9.60;99.90
53310;DHT22;39197;53.200;5.792;2023-03-31T07:17:50;9.60;99.90
53310;DHT22;39197;53.200;5.792;2023-03-31T07:20:18;9.60;99.90
53310;DHT22;39197;53.200;5.792;2023-03-31T07:22:46;9.60;99.90
53310;DHT22;39197;53.200;5.792;2023-03-31T07:25:16;9.70;99.90
53310;DHT22;39197;53.200;5.792;2023-03-31T07:27:43;9.60;99.90
53310;DHT22;39197;53.200;5.792;2023-03-31T07:30:17;9.50;99.90
53310;DHT22;39197;53.200;5.792;2023-03-31T07:32:45;9.50;99.90
53310;DHT22;39197;53.200;5.792;2023-03-31T07:35:11;9.50;99.90
53310;DHT22;39197;53.200;5.792;2023-03-31T07:37:43;9.50;99.90
53310;DHT22;39197;53.200;5.792;2023-03-31T07:40:14;9.50;99.90
53310;DHT22;39197;53.200;5.792;2023-03-31T07:42:41;9.50;99.90
53310;DHT22;39197;53.200;5.792;2023-03-31T07:45:08;9.40;99.90
53310;DHT22;39197;53.200;5.792;2023-03-31T07:47:34;9.40;99.90
53310;DHT22;39197;53.200;5.792;2023-03-31T07:50:00;9.40;99.90
53310;DHT22;39197;53.200;5.792;2023-03-31T07:52:25;9.40;99.90
53310;DHT22;39197;53.200;5.792;2023-03-31T07:54:51;9.30;99.90
53310;DHT22;39197;53.200;5.792;2023-03-31T07:57:17;9.30;99.90
53310;DHT22;39197;53.200;5.792;2023-03-31T07:59:44;9.30;99.90
53310;DHT22;39197;53.200;5.792;2023-03-31T08:02:16;9.30;99.90
53310;DHT22;39197;53.200;5.792;2023-03-31T08:04:42;9.30;99.90
53310;DHT22;39197;53.200;5.792;2023-03-31T08:07:13;9.40;99.90
53310;DHT22;39197;53.200;5.792;2023-03-31T08:09:39;9.40;99.90
53310;DHT22;39197;53.200;5.792;2023-03-31T08:12:05;9.40;99.90
53310;DHT22;39197;53.200;5.792;2023-03-31T08:14:31;9.50;99.90
53310;DHT22;39197;53.200;5.792;2023-03-31T08:16:57;9.50;99.90
53310;DHT22;39197;53.200;5.792;2023-03-31T08:19:25;9.50;99.90
53310;DHT22;39197;53.200;5.792;2023-03-31T08:21:51;9.60;99.90
53310;DHT22;39197;53.200;5.792;2023-03-31T08:24:17;9.60;99.90
53310;DHT22;39197;53.200;5.792;2023-03-31T08:26:43;9.70;99.90
53310;DHT22;39197;53.200;5.792;2023-03-31T08:29:08;9.70;99.90
53310;DHT22;39197;53.200;5.792;2023-03-31T08:31:34;9.80;99.90
53310;DHT22;39197;53.200;5.792;2023-03-31T08:34:00;9.80;99.90
53310;DHT22;39197;53.200;5.792;2023-03-31T08:36:27;9.80;99.90
53310;DHT22;39197;53.200;5.792;2023-03-31T08:38:53;9.90;99.90
53310;DHT22;39197;53.200;5.792;2023-03-31T08:44:33;10.00;99.90
53310;DHT22;39197;53.200;5.792;2023-03-31T08:47:01;10.00;99.90
53310;DHT22;39197;53.200;5.792;2023-03-31T08:49:32;10.10;99.90
53310;DHT22;39197;53.200;5.792;2023-03-31T08:52:04;10.20;99.90
53310;DHT22;39197;53.200;5.792;2023-03-31T08:54:37;10.20;99.90
53310;DHT22;39197;53.200;5.792;2023-03-31T08:57:34;10.20;99.90
53310;DHT22;39197;53.200;5.792;2023-03-31T08:59:56;10.20;99.90
53310;DHT22;39197;53.200;5.792;2023-03-31T09:02:32;10.30;99.90
53310;DHT22;39197;53.200;5.792;2023-03-31T09:10:38;10.30;99.90
53310;DHT22;39197;53.200;5.792;2023-03-31T09:18:32;10.60;99.90
53310;DHT22;39197;53.200;5.792;2023-03-31T09:21:07;10.60;99.90
53310;DHT22;39197;53.200;5.792;2023-03-31T09:26:41;10.80;99.90
53310;DHT22;39197;53.200;5.792;2023-03-31T09:31:55;10.90;99.90
53310;DHT22;39197;53.200;5.792;2023-03-31T09:34:28;10.90;99.90
53310;DHT22;39197;53.200;5.792;2023-03-31T09:36:55;10.80;99.90
53310;DHT22;39197;53.200;5.792;2023-03-31T09:39:21;10.80;99.90
53310;DHT22;39197;53.200;5.792;2023-03-31T09:41:49;10.70;99.90
53310;DHT22;39197;53.200;5.792;2023-03-31T09:44:36;10.70;99.90
53310;DHT22;39197;53.200;5.792;2023-03-31T09:47:03;10.70;99.90
53310;DHT22;39197;53.200;5.792;2023-03-31T09:49:34;10.70;99.90
53310;DHT22;39197;53.200;5.792;2023-03-31T09:52:04;10.70;99.90
53310;DHT22;39197;53.200;5.792;2023-03-31T09:54:35;10.60;99.90
53310;DHT22;39197;53.200;5.792;2023-03-31T09:57:02;10.80;99.90
53310;DHT22;39197;53.200;5.792;2023-03-31T09:59:33;10.70;99.90
53310;DHT22;39197;53.200;5.792;2023-03-31T10:04:45;10.50;99.90
53310;DHT22;39197;53.200;5.792;2023-03-31T10:07:11;10.50;99.90
53310;DHT22;39197;53.200;5.792;2023-03-31T10:09:38;10.50;99.90
53310;DHT22;39197;53.200;5.792;2023-03-31T10:12:07;10.50;99.90
53310;DHT22;39197;53.200;5.792;2023-03-31T10:14:40;10.40;99.90
53310;DHT22;39197;53.200;5.792;2023-03-31T10:17:06;10.40;99.90
53310;DHT22;39197;53.200;5.792;2023-03-31T10:19:35;10.50;99.90
53310;DHT22;39197;53.200;5.792;2023-03-31T10:22:04;10.50;99.90
53310;DHT22;39197;53.200;5.792;2023-03-31T10:24:42;10.60;99.90
53310;DHT22;39197;53.200;5.792;2023-03-31T10:27:26;10.80;99.90
53310;DHT22;39197;53.200;5.792;2023-03-31T10:29:54;10.90;99.90
53310;DHT22;39197;53.200;5.792;2023-03-31T10:34:54;11.30;99.90
53310;DHT22;39197;53.200;5.792;2023-03-31T10:37:23;11.60;99.90
53310;DHT22;39197;53.200;5.792;2023-03-31T10:40:12;11.70;99.90
53310;DHT22;39197;53.200;5.792;2023-03-31T10:42:39;11.90;99.90
53310;DHT22;39197;53.200;5.792;2023-03-31T10:45:28;12.00;99.90
53310;DHT22;39197;53.200;5.792;2023-03-31T10:47:57;12.00;99.90
53310;DHT22;39197;53.200;5.792;2023-03-31T10:50:28;12.00;99.90
53310;DHT22;39197;53.200;5.792;2023-03-31T10:53:02;12.10;99.90
53310;DHT22;39197;53.200;5.792;2023-03-31T10:55:34;12.10;99.90
53310;DHT22;39197;53.200;5.792;2023-03-31T10:58:09;12.20;99.90
53310;DHT22;39197;53.200;5.792;2023-03-31T11:12:41;13.10;99.90
53310;DHT22;39197;53.200;5.792;2023-03-31T11:21:02;13.50;99.90
53310;DHT22;39197;53.200;5.792;2023-03-31T11:23:43;13.40;99.90
53310;DHT22;39197;53.200;5.792;2023-03-31T11:31:40;13.10;99.90
53310;DHT22;39197;53.200;5.792;2023-03-31T11:40:20;12.40;99.90
53310;DHT22;39197;53.200;5.792;2023-03-31T11:42:53;12.20;99.90
53310;DHT22;39197;53.200;5.792;2023-03-31T11:45:26;12.00;99.90
53310;DHT22;39197;53.200;5.792;2023-03-31T11:47:57;11.70;99.90
53310;DHT22;39197;53.200;5.792;2023-03-31T11:50:31;11.60;99.90
53310;DHT22;39197;53.200;5.792;2023-03-31T11:53:01;11.50;99.90
53310;DHT22;39197;53.200;5.792;2023-03-31T11:55:28;11.40;99.90
53310;DHT22;39197;53.200;5.792;2023-03-31T11:58:05;11.30;99.90
53310;DHT22;39197;53.200;5.792;2023-03-31T12:01:02;11.30;99.90
53310;DHT22;39197;53.200;5.792;2023-03-31T12:04:22;11.40;99.90
53310;DHT22;39197;53.200;5.792;2023-03-31T12:06:30;11.50;99.90
53310;DHT22;39197;53.200;5.792;2023-03-31T12:17:26;11.80;99.90
53310;DHT22;39197;53.200;5.792;2023-03-31T12:20:08;11.70;99.90
53310;DHT22;39197;53.200;5.792;2023-03-31T12:22:47;11.50;99.90
53310;DHT22;39197;53.200;5.792;2023-03-31T12:25:15;11.50;99.90
53310;DHT22;39197;53.200;5.792;2023-03-31T12:27:45;11.50;99.90
53310;DHT22;39197;53.200;5.792;2023-03-31T12:30:29;11.50;99.90
53310;DHT22;39197;53.200;5.792;2023-03-31T12:32:59;11.60;99.90
53310;DHT22;39197;53.200;5.792;2023-03-31T12:39:12;11.60;99.90
53310;DHT22;39197;53.200;5.792;2023-03-31T12:49:29;11.80;99.90
53310;DHT22;39197;53.200;5.792;2023-03-31T12:52:04;11.90;99.90
53310;DHT22;39197;53.200;5.792;2023-03-31T12:54:36;11.70;99.90
53310;DHT22;39197;53.200;5.792;2023-03-31T12:59:37;11.60;99.90
53310;DHT22;39197;53.200;5.792;2023-03-31T13:04:38;11.70;99.90
53310;DHT22;39197;53.200;5.792;2023-03-31T13:07:07;11.70;99.90
53310;DHT22;39197;53.200;5.792;2023-03-31T13:09:48;11.70;99.90
53310;DHT22;39197;53.200;5.792;2023-03-31T13:12:20;11.70;99.90
53310;DHT22;39197;53.200;5.792;2023-03-31T13:14:51;11.80;99.90
53310;DHT22;39197;53.200;5.792;2023-03-31T13:17:32;11.90;99.90
53310;DHT22;39197;53.200;5.792;2023-03-31T13:20:36;12.00;99.90
53310;DHT22;39197;53.200;5.792;2023-03-31T13:23:15;12.10;99.90
53310;DHT22;39197;53.200;5.792;2023-03-31T13:25:54;12.40;99.90
53310;DHT22;39197;53.200;5.792;2023-03-31T13:30:56;12.50;99.90
53310;DHT22;39197;53.200;5.792;2023-03-31T13:33:27;12.60;99.90
53310;DHT22;39197;53.200;5.792;2023-03-31T13:39:12;12.60;99.90
53310;DHT22;39197;53.200;5.792;2023-03-31T13:47:42;12.80;99.90
53310;DHT22;39197;53.200;5.792;2023-03-31T14:07:43;12.60;99.90
53310;DHT22;39197;53.200;5.792;2023-03-31T14:10:28;12.60;99.90
53310;DHT22;39197;53.200;5.792;2023-03-31T14:15:29;12.70;99.90
53310;DHT22;39197;53.200;5.792;2023-03-31T14:17:55;12.70;99.90
53310;DHT22;39197;53.200;5.792;2023-03-31T14:20:26;12.70;99.90
53310;DHT22;39197;53.200;5.792;2023-03-31T14:31:06;12.50;99.90
53310;DHT22;39197;53.200;5.792;2023-03-31T14:36:25;12.40;99.90
53310;DHT22;39197;53.200;5.792;2023-03-31T14:39:00;12.40;99.90
53310;DHT22;39197;53.200;5.792;2023-03-31T14:41:27;12.20;99.90
53310;DHT22;39197;53.200;5.792;2023-03-31T14:43:59;12.20;99.90
53310;DHT22;39197;53.200;5.792;2023-03-31T14:46:28;12.10;99.90
53310;DHT22;39197;53.200;5.792;2023-03-31T14:48:54;12.10;99.90
53310;DHT22;39197;53.200;5.792;2023-03-31T14:51:29;12.10;99.90
53310;DHT22;39197;53.200;5.792;2023-03-31T14:53:56;12.00;99.90
53310;DHT22;39197;53.200;5.792;2023-03-31T14:56:30;12.10;99.90
53310;DHT22;39197;53.200;5.792;2023-03-31T14:58:59;12.10;99.90
53310;DHT22;39197;53.200;5.792;2023-03-31T15:01:29;12.00;99.90
53310;DHT22;39197;53.200;5.792;2023-03-31T15:03:59;12.10;99.90
53310;DHT22;39197;53.200;5.792;2023-03-31T15:06:25;12.10;99.90
53310;DHT22;39197;53.200;5.792;2023-03-31T15:08:54;12.00;99.90
53310;DHT22;39197;53.200;5.792;2023-03-31T15:11:21;12.00;99.90
53310;DHT22;39197;53.200;5.792;2023-03-31T15:13:49;11.90;99.90
53310;DHT22;39197;53.200;5.792;2023-03-31T15:16:27;11.80;99.90
53310;DHT22;39197;53.200;5.792;2023-03-31T15:18:54;11.70;99.90
53310;DHT22;39197;53.200;5.792;2023-03-31T15:21:23;11.60;99.90
53310;DHT22;39197;53.200;5.792;2023-03-31T15:23:57;11.50;99.90
53310;DHT22;39197;53.200;5.792;2023-03-31T15:26:33;11.40;99.90
53310;DHT22;39197;53.200;5.792;2023-03-31T15:29:18;11.30;99.90
53310;DHT22;39197;53.200;5.792;2023-03-31T15:31:45;11.30;99.90
53310;DHT22;39197;53.200;5.792;2023-03-31T15:34:24;11.20;99.90
53310;DHT22;39197;53.200;5.792;2023-03-31T15:36:56;11.20;99.90
53310;DHT22;39197;53.200;5.792;2023-03-31T15:39:24;11.20;99.90
53310;DHT22;39197;53.200;5.792;2023-03-31T15:41:51;11.20;99.90
53310;DHT22;39197;53.200;5.792;2023-03-31T15:50:11;11.20;99.90
53310;DHT22;39197;53.200;5.792;2023-03-31T15:52:49;11.20;99.90
53310;DHT22;39197;53.200;5.792;2023-03-31T15:57:49;11.30;99.90
53310;DHT22;39197;53.200;5.792;2023-03-31T16:02:56;11.40;99.90
53310;DHT22;39197;53.200;5.792;2023-03-31T16:05:38;11.40;99.90
53310;DHT22;39197;53.200;5.792;2023-03-31T16:08:09;11.50;99.90
53310;DHT22;39197;53.200;5.792;2023-03-31T16:10:38;11.70;99.90
53310;DHT22;39197;53.200;5.792;2023-03-31T16:13:06;11.60;99.90
53310;DHT22;39197;53.200;5.792;2023-03-31T16:15:36;11.60;99.90
53310;DHT22;39197;53.200;5.792;2023-03-31T16:18:05;11.60;99.90
53310;DHT22;39197;53.200;5.792;2023-03-31T16:20:40;11.60;99.90
53310;DHT22;39197;53.200;5.792;2023-03-31T16:23:15;11.60;99.90
53310;DHT22;39197;53.200;5.792;2023-03-31T16:25:42;11.60;99.90
53310;DHT22;39197;53.200;5.792;2023-03-31T16:28:14;11.60;99.90
53310;DHT22;39197;53.200;5.792;2023-03-31T16:30:42;11.60;99.90
53310;DHT22;39197;53.200;5.792;2023-03-31T16:33:13;11.70;99.90
53310;DHT22;39197;53.200;5.792;2023-03-31T16:35:41;11.70;99.90
53310;DHT22;39197;53.200;5.792;2023-03-31T16:38:09;11.60;99.90
53310;DHT22;39197;53.200;5.792;2023-03-31T16:40:40;11.70;99.90
53310;DHT22;39197;53.200;5.792;2023-03-31T16:43:11;11.80;99.90
53310;DHT22;39197;53.200;5.792;2023-03-31T16:45:37;11.80;99.90
53310;DHT22;39197;53.200;5.792;2023-03-31T16:48:03;11.90;99.90
53310;DHT22;39197;53.200;5.792;2023-03-31T16:50:29;11.90;99.90
53310;DHT22;39197;53.200;5.792;2023-03-31T16:52:54;11.90;99.90
53310;DHT22;39197;53.200;5.792;2023-03-31T16:55:20;12.00;99.90
53310;DHT22;39197;53.200;5.792;2023-03-31T16:57:46;11.90;99.90
53310;DHT22;39197;53.200;5.792;2023-03-31T17:00:13;11.80;99.90
53310;DHT22;39197;53.200;5.792;2023-03-31T17:02:38;11.80;99.90
53310;DHT22;39197;53.200;5.792;2023-03-31T17:05:04;11.70;99.90
53310;DHT22;39197;53.200;5.792;2023-03-31T17:07:30;11.60;99.90
53310;DHT22;39197;53.200;5.792;2023-03-31T17:09:57;11.40;99.90
53310;DHT22;39197;53.200;5.792;2023-03-31T17:12:23;11.40;99.90
53310;DHT22;39197;53.200;5.792;2023-03-31T17:14:48;11.40;99.90
53310;DHT22;39197;53.200;5.792;2023-03-31T17:17:14;11.40;99.90
53310;DHT22;39197;53.200;5.792;2023-03-31T17:19:40;11.50;99.90
53310;DHT22;39197;53.200;5.792;2023-03-31T17:22:05;11.40;99.90
53310;DHT22;39197;53.200;5.792;2023-03-31T17:24:31;11.40;99.90
53310;DHT22;39197;53.200;5.792;2023-03-31T17:26:57;11.60;99.90
53310;DHT22;39197;53.200;5.792;2023-03-31T17:29:22;11.50;99.90
53310;DHT22;39197;53.200;5.792;2023-03-31T17:31:49;11.40;99.90
53310;DHT22;39197;53.200;5.792;2023-03-31T17:34:15;11.40;99.90
53310;DHT22;39197;53.200;5.792;2023-03-31T17:36:41;11.30;99.90
53310;DHT22;39197;53.200;5.792;2023-03-31T17:39:09;11.20;99.90
53310;DHT22;39197;53.200;5.792;2023-03-31T17:41:35;11.10;99.90
53310;DHT22;39197;53.200;5.792;2023-03-31T17:44:01;11.00;99.90
53310;DHT22;39197;53.200;5.792;2023-03-31T17:46:26;10.90;99.90
53310;DHT22;39197;53.200;5.792;2023-03-31T17:48:52;10.90;99.90
53310;DHT22;39197;53.200;5.792;2023-03-31T17:51:19;10.80;99.90
53310;DHT22;39197;53.200;5.792;2023-03-31T17:53:46;10.80;99.90
53310;DHT22;39197;53.200;5.792;2023-03-31T17:56:13;10.80;99.90
53310;DHT22;39197;53.200;5.792;2023-03-31T17:58:39;10.80;99.90
53310;DHT22;39197;53.200;5.792;2023-03-31T18:01:07;10.80;99.90
53310;DHT22;39197;53.200;5.792;2023-03-31T18:03:33;10.80;99.90
53310;DHT22;39197;53.200;5.792;2023-03-31T18:06:10;10.80;99.90
53310;DHT22;39197;53.200;5.792;2023-03-31T18:08:37;10.90;99.90
53310;DHT22;39197;53.200;5.792;2023-03-31T18:11:04;10.80;99.90
53310;DHT22;39197;53.200;5.792;2023-03-31T18:13:31;10.80;99.90
53310;DHT22;39197;53.200;5.792;2023-03-31T18:15:56;10.80;99.90
53310;DHT22;39197;53.200;5.792;2023-03-31T18:18:23;10.90;99.90
53310;DHT22;39197;53.200;5.792;2023-03-31T18:20:51;10.80;99.90
53310;DHT22;39197;53.200;5.792;2023-03-31T18:23:17;10.80;99.90
53310;DHT22;39197;53.200;5.792;2023-03-31T18:25:43;10.80;99.90
53310;DHT22;39197;53.200;5.792;2023-03-31T18:28:14;10.80;99.90
53310;DHT22;39197;53.200;5.792;2023-03-31T18:30:41;10.80;99.90
53310;DHT22;39197;53.200;5.792;2023-03-31T18:33:08;10.70;99.90
53310;DHT22;39197;53.200;5.792;2023-03-31T18:35:34;10.70;99.90
53310;DHT22;39197;53.200;5.792;2023-03-31T18:38:00;10.60;99.90
53310;DHT22;39197;53.200;5.792;2023-03-31T18:40:26;10.60;99.90
53310;DHT22;39197;53.200;5.792;2023-03-31T18:42:51;10.60;99.90
53310;DHT22;39197;53.200;5.792;2023-03-31T18:45:17;10.60;99.90